createdAt,value
2018-09-30T00:00:48.183Z,99.99
2018-09-30T00:01:48.196Z,99.99
2018-09-30T00:02:48.216Z,99.99
2018-09-30T00:04:48.258Z,99.99
2018-09-30T00:05:48.005Z,99.99
2018-09-30T00:06:48.283Z,99.99
2018-09-30T00:07:48.296Z,99.99
2018-09-30T00:08:48.314Z,99.99
2018-09-30T00:10:02.994Z,99.99
2018-09-30T00:10:48.382Z,99.99
2018-09-30T00:11:48.371Z,99.99
2018-09-30T00:12:48.381Z,99.99
2018-09-30T00:13:48.141Z,99.99
2018-09-30T00:14:48.157Z,99.99
2018-09-30T00:15:49.179Z,99.99
2018-09-30T00:16:48.195Z,99.99
2018-09-30T00:18:48.584Z,99.99
2018-09-30T00:19:48.499Z,99.99
2018-09-30T00:20:48.518Z,99.99
2018-09-30T00:21:48.536Z,99.99
2018-09-30T00:22:48.552Z,99.99
2018-09-30T00:23:48.564Z,99.99
2018-09-30T00:24:48.583Z,99.99
2018-09-30T00:26:03.259Z,99.99
2018-09-30T00:26:48.617Z,99.99
2018-09-30T00:27:48.375Z,99.99
2018-09-30T00:28:48.649Z,99.99
2018-09-30T00:29:48.671Z,99.99
2018-09-30T00:30:48.682Z,99.99
2018-09-30T00:31:48.705Z,99.99
2018-09-30T00:33:48.733Z,99.99
2018-09-30T00:35:48.766Z,99.99
2018-09-30T00:36:48.785Z,99.99
2018-09-30T00:37:48.809Z,99.99
2018-09-30T00:38:48.558Z,99.99
2018-09-30T00:39:48.833Z,99.99
2018-09-30T00:40:48.851Z,99.99
2018-09-30T00:42:03.526Z,99.99
2018-09-30T00:42:48.629Z,99.99
2018-09-30T00:43:48.648Z,99.99
2018-09-30T00:44:48.920Z,99.99
2018-09-30T00:45:48.679Z,99.99
2018-09-30T00:46:48.951Z,99.99
2018-09-30T00:47:48.967Z,99.99
2018-09-30T00:48:48.984Z,99.99
2018-09-30T00:49:48.996Z,99.99
2018-09-30T00:50:49.018Z,99.99
2018-09-30T00:51:49.032Z,99.99
2018-09-30T00:52:49.053Z,99.99
2018-09-30T00:53:49.069Z,99.99
2018-09-30T00:54:49.084Z,99.99
2018-09-30T00:55:49.099Z,99.99
2018-09-30T00:56:49.115Z,99.99
2018-09-30T00:58:03.801Z,99.99
2018-09-30T00:58:49.148Z,99.99
2018-09-30T00:59:49.168Z,99.99
2018-09-30T01:00:49.181Z,99.99
2018-09-30T01:01:49.205Z,99.99
2018-09-30T01:02:49.216Z,99.99
2018-09-30T01:03:49.231Z,99.99
2018-09-30T01:04:49.251Z,99.99
2018-09-30T01:05:49.266Z,99.99
2018-09-30T01:06:49.029Z,99.99
2018-09-30T01:07:49.299Z,99.99
2018-09-30T01:08:49.321Z,99.99
2018-09-30T01:09:49.336Z,99.99
2018-09-30T01:10:49.351Z,99.99
2018-09-30T01:11:49.378Z,99.99
2018-09-30T01:13:04.042Z,99.99
2018-09-30T01:13:49.399Z,99.99
2018-09-30T01:14:49.419Z,99.99
2018-09-30T01:16:49.447Z,99.99
2018-09-30T01:17:49.465Z,99.99
2018-09-30T01:18:49.633Z,99.99
2018-09-30T01:19:49.499Z,99.99
2018-09-30T01:20:49.514Z,99.99
2018-09-30T01:21:49.272Z,99.99
2018-09-30T01:23:49.565Z,99.99
2018-09-30T01:24:49.579Z,99.99
2018-09-30T01:25:49.595Z,99.99
2018-09-30T01:26:49.354Z,99.99
2018-09-30T01:27:49.629Z,99.99
2018-09-30T01:28:49.661Z,99.99
2018-09-30T01:29:49.668Z,99.99
2018-09-30T01:30:49.676Z,99.99
2018-09-30T01:31:49.436Z,99.99
2018-09-30T01:32:49.710Z,99.99
2018-09-30T01:33:49.469Z,99.99
2018-09-30T01:34:49.743Z,99.99
2018-09-30T01:35:49.820Z,99.99
2018-09-30T01:37:49.790Z,99.99
2018-09-30T01:39:49.826Z,99.99
2018-09-30T01:40:49.584Z,99.99
2018-09-30T01:41:49.857Z,99.99
2018-09-30T01:42:49.879Z,99.99
2018-09-30T01:43:49.894Z,99.99
2018-09-30T01:45:04.567Z,99.99
2018-09-30T01:45:49.922Z,99.99
2018-09-30T01:46:49.941Z,99.99
2018-09-30T01:47:49.956Z,99.99
2018-09-30T01:48:49.970Z,99.99
2018-09-30T01:49:49.989Z,99.99
2018-09-30T01:50:50.004Z,99.99
2018-09-30T01:51:50.025Z,99.99
2018-09-30T01:53:50.054Z,99.99
2018-09-30T01:55:50.087Z,99.99
2018-09-30T01:56:50.104Z,99.99
2018-09-30T01:57:50.119Z,99.99
2018-09-30T01:58:50.133Z,99.99
2018-09-30T01:59:50.153Z,99.99
2018-09-30T02:01:04.828Z,99.99
2018-09-30T02:01:50.182Z,99.99
2018-09-30T02:02:50.197Z,99.99
2018-09-30T02:03:50.215Z,99.99
2018-09-30T02:04:50.233Z,99.99
2018-09-30T02:05:50.249Z,99.99
2018-09-30T02:06:50.264Z,99.99
2018-09-30T02:07:50.025Z,99.99
2018-09-30T02:10:50.334Z,99.99
2018-09-30T02:11:50.349Z,99.99
2018-09-30T02:12:50.363Z,99.99
2018-09-30T02:13:50.378Z,99.99
2018-09-30T02:14:50.397Z,99.99
2018-09-30T02:15:50.411Z,99.99
2018-09-30T02:17:05.091Z,99.99
2018-09-30T02:17:50.443Z,99.99
2018-09-30T02:18:50.466Z,99.99
2018-09-30T02:19:50.218Z,99.99
2018-09-30T02:20:50.492Z,99.99
2018-09-30T02:21:50.506Z,99.99
2018-09-30T02:22:50.528Z,99.99
2018-09-30T02:23:50.541Z,99.99
2018-09-30T02:24:50.555Z,99.99
2018-09-30T02:25:50.573Z,99.99
2018-09-30T02:27:50.604Z,99.99
2018-09-30T02:28:50.619Z,99.99
2018-09-30T02:29:50.637Z,99.99
2018-09-30T02:30:50.661Z,99.99
2018-09-30T02:31:50.671Z,99.99
2018-09-30T02:33:05.346Z,99.99
2018-09-30T02:33:50.702Z,99.99
2018-09-30T02:34:50.461Z,99.99
2018-09-30T02:35:50.735Z,99.99
2018-09-30T02:36:50.757Z,99.99
2018-09-30T02:37:50.767Z,99.99
2018-09-30T02:38:50.794Z,99.99
2018-09-30T02:39:50.541Z,99.99
2018-09-30T02:40:50.819Z,99.99
2018-09-30T02:41:50.833Z,99.99
2018-09-30T02:43:50.865Z,99.99
2018-09-30T02:44:50.879Z,99.99
2018-09-30T02:45:50.895Z,99.99
2018-09-30T02:46:50.911Z,99.99
2018-09-30T02:48:05.592Z,99.99
2018-09-30T02:48:50.947Z,99.99
2018-09-30T02:49:50.960Z,99.99
2018-09-30T02:50:50.976Z,99.99
2018-09-30T02:51:50.736Z,99.99
2018-09-30T02:52:51.011Z,99.99
2018-09-30T02:53:51.025Z,99.99
2018-09-30T02:54:51.050Z,99.99
2018-09-30T02:55:51.064Z,99.99
2018-09-30T02:56:51.072Z,99.99
2018-09-30T02:57:51.140Z,99.99
2018-09-30T02:59:51.126Z,99.99
2018-09-30T03:00:51.141Z,99.99
2018-09-30T03:01:51.155Z,99.99
2018-09-30T03:02:51.174Z,99.99
2018-09-30T03:03:51.186Z,99.99
2018-09-30T03:04:51.200Z,99.99
2018-09-30T03:05:51.218Z,99.99
2018-09-30T03:06:51.239Z,99.99
2018-09-30T03:07:51.256Z,99.99
2018-09-30T03:08:51.266Z,99.99
2018-09-30T03:09:51.286Z,99.99
2018-09-30T03:10:51.297Z,99.99
2018-09-30T03:11:51.312Z,99.99
2018-09-30T03:12:51.071Z,99.99
2018-09-30T03:14:51.362Z,99.99
2018-09-30T03:15:51.376Z,99.99
2018-09-30T03:16:51.390Z,99.99
2018-09-30T03:17:51.410Z,99.99
2018-09-30T03:18:51.425Z,99.99
2018-09-30T03:20:06.099Z,99.99
2018-09-30T03:20:51.199Z,99.99
2018-09-30T03:21:51.213Z,99.99
2018-09-30T03:22:51.229Z,99.99
2018-09-30T03:23:51.503Z,99.99
2018-09-30T03:24:51.521Z,99.99
2018-09-30T03:25:51.537Z,99.99
2018-09-30T03:26:51.562Z,99.99
2018-09-30T03:27:51.567Z,99.99
2018-09-30T03:28:51.585Z,99.99
2018-09-30T03:29:51.599Z,99.99
2018-09-30T03:30:51.616Z,99.99
2018-09-30T03:31:51.374Z,99.99
2018-09-30T03:32:51.648Z,99.99
2018-09-30T03:33:51.661Z,99.99
2018-09-30T03:34:51.687Z,99.99
2018-09-30T03:36:06.353Z,99.99
2018-09-30T03:36:51.715Z,99.99
2018-09-30T03:37:51.731Z,99.99
2018-09-30T03:38:51.744Z,99.99
2018-09-30T03:39:51.755Z,99.99
2018-09-30T03:40:51.772Z,99.99
2018-09-30T03:41:51.788Z,99.99
2018-09-30T03:42:51.806Z,99.99
2018-09-30T03:43:51.662Z,99.99
2018-09-30T03:44:51.847Z,99.99
2018-09-30T03:45:51.852Z,99.99
2018-09-30T03:46:51.870Z,99.99
2018-09-30T03:47:51.885Z,99.99
2018-09-30T03:48:51.900Z,99.99
2018-09-30T03:49:51.922Z,99.99
2018-09-30T03:50:51.930Z,99.99
2018-09-30T03:52:06.606Z,99.99
2018-09-30T03:52:51.980Z,99.99
2018-09-30T03:53:51.982Z,99.99
2018-09-30T03:54:51.995Z,99.99
2018-09-30T03:55:52.009Z,99.99
2018-09-30T03:56:52.235Z,99.99
2018-09-30T03:57:51.784Z,99.99
2018-09-30T03:58:51.797Z,99.99
2018-09-30T04:00:52.085Z,99.99
2018-09-30T04:01:52.105Z,99.99
2018-09-30T04:02:52.120Z,99.99
2018-09-30T04:03:52.136Z,99.99
2018-09-30T04:04:52.150Z,99.99
2018-09-30T04:05:52.167Z,99.99
2018-09-30T04:06:52.209Z,99.99
2018-09-30T04:08:06.855Z,99.99
2018-09-30T04:08:52.215Z,99.99
2018-09-30T04:09:52.377Z,99.99
2018-09-30T04:10:52.248Z,99.99
2018-09-30T04:11:52.275Z,99.99
2018-09-30T04:12:52.284Z,99.99
2018-09-30T04:13:52.299Z,99.99
2018-09-30T04:14:52.320Z,99.99
2018-09-30T04:15:52.325Z,99.99
2018-09-30T04:16:52.459Z,99.99
2018-09-30T04:17:52.096Z,99.99
2018-09-30T04:18:52.373Z,99.99
2018-09-30T04:19:52.392Z,99.99
2018-09-30T04:20:52.407Z,99.99
2018-09-30T04:21:52.427Z,99.99
2018-09-30T04:23:07.094Z,99.99
2018-09-30T04:23:52.195Z,99.99
2018-09-30T04:24:52.478Z,99.99
2018-09-30T04:25:52.481Z,99.99
2018-09-30T04:26:52.250Z,99.99
2018-09-30T04:27:52.509Z,99.99
2018-09-30T04:28:52.527Z,99.99
2018-09-30T04:29:52.541Z,99.99
2018-09-30T04:30:52.560Z,99.99
2018-09-30T04:31:52.316Z,99.99
2018-09-30T04:32:52.592Z,99.99
2018-09-30T04:33:52.609Z,99.99
2018-09-30T04:34:52.622Z,99.99
2018-09-30T04:35:52.634Z,99.99
2018-09-30T04:36:52.653Z,99.99
2018-09-30T04:37:52.669Z,99.99
2018-09-30T04:38:52.685Z,99.99
2018-09-30T04:39:52.699Z,99.99
2018-09-30T04:40:52.716Z,99.99
2018-09-30T04:41:52.730Z,99.99
2018-09-30T04:42:52.746Z,99.99
2018-09-30T04:43:52.503Z,99.99
2018-09-30T04:44:52.777Z,99.99
2018-09-30T04:45:52.793Z,99.99
2018-09-30T04:46:52.804Z,99.99
2018-09-30T04:50:52.616Z,99.99
2018-09-30T04:51:52.884Z,99.99
2018-09-30T04:52:52.904Z,99.99
2018-09-30T04:53:52.917Z,99.99
2018-09-30T04:55:07.592Z,99.99
2018-09-30T04:55:52.951Z,99.99
2018-09-30T04:56:52.961Z,99.99
2018-09-30T04:57:52.721Z,99.99
2018-09-30T04:58:52.994Z,99.99
2018-09-30T04:59:53.010Z,99.99
2018-09-30T05:00:53.027Z,99.99
2018-09-30T05:01:53.039Z,99.99
2018-09-30T05:02:53.057Z,99.99
2018-09-30T05:04:53.086Z,99.99
2018-09-30T05:05:53.243Z,99.99
2018-09-30T05:06:53.117Z,99.99
2018-09-30T05:07:53.234Z,99.99
2018-09-30T05:08:53.151Z,99.99
2018-09-30T05:09:52.957Z,99.99
2018-09-30T05:11:07.840Z,99.99
2018-09-30T05:11:53.197Z,99.99
2018-09-30T05:12:53.212Z,99.99
2018-09-30T05:13:52.968Z,99.99
2018-09-30T05:14:53.243Z,99.99
2018-09-30T05:15:53.044Z,99.99
2018-09-30T05:17:53.292Z,99.99
2018-09-30T05:18:53.304Z,99.99
2018-09-30T05:19:53.320Z,99.99
2018-09-30T05:20:53.338Z,99.99
2018-09-30T05:21:53.352Z,99.99
2018-09-30T05:22:53.376Z,99.99
2018-09-30T05:23:53.384Z,99.99
2018-09-30T05:24:53.397Z,99.99
2018-09-30T05:25:53.418Z,99.99
2018-09-30T05:27:08.088Z,99.99
2018-09-30T05:27:53.444Z,99.99
2018-09-30T05:28:53.460Z,99.99
2018-09-30T05:29:53.479Z,99.99
2018-09-30T05:30:53.492Z,99.99
2018-09-30T05:31:53.506Z,99.99
2018-09-30T05:32:53.527Z,99.99
2018-09-30T05:33:53.539Z,99.99
2018-09-30T05:35:53.571Z,99.99
2018-09-30T05:36:53.585Z,99.99
2018-09-30T05:37:53.602Z,99.99
2018-09-30T05:38:53.624Z,99.99
2018-09-30T05:39:53.634Z,99.99
2018-09-30T05:40:53.650Z,99.99
2018-09-30T05:41:53.664Z,99.99
2018-09-30T05:43:08.361Z,99.99
2018-09-30T05:43:53.696Z,99.99
2018-09-30T05:44:53.710Z,99.99
2018-09-30T05:45:53.783Z,99.99
2018-09-30T05:46:53.744Z,99.99
2018-09-30T05:47:53.804Z,99.99
2018-09-30T05:48:53.777Z,99.99
2018-09-30T05:49:53.791Z,99.99
2018-09-30T05:50:53.810Z,99.99
2018-09-30T05:53:53.597Z,99.99
2018-09-30T05:54:53.870Z,99.99
2018-09-30T05:55:53.889Z,99.99
2018-09-30T05:56:53.910Z,99.99
2018-09-30T05:58:08.684Z,99.99
2018-09-30T05:58:53.943Z,99.99
2018-09-30T05:59:53.952Z,99.99
2018-09-30T06:00:53.971Z,99.99
2018-09-30T06:01:53.732Z,99.99
2018-09-30T06:02:54.008Z,99.99
2018-09-30T06:03:54.170Z,99.99
2018-09-30T06:04:54.043Z,99.99
2018-09-30T06:05:54.060Z,99.99
2018-09-30T06:07:54.100Z,99.99
2018-09-30T06:08:54.230Z,99.99
2018-09-30T06:09:54.139Z,99.99
2018-09-30T06:10:54.158Z,99.99
2018-09-30T06:11:53.921Z,99.99
2018-09-30T06:12:53.943Z,99.99
2018-09-30T06:13:54.045Z,99.99
2018-09-30T06:14:54.245Z,99.99
2018-09-30T06:15:54.525Z,99.99
2018-09-30T06:16:54.290Z,99.99
2018-09-30T06:17:54.310Z,99.99
2018-09-30T06:18:54.333Z,99.99
2018-09-30T06:19:54.359Z,99.99
2018-09-30T06:20:54.386Z,99.99
2018-09-30T06:21:54.401Z,99.99
2018-09-30T06:23:54.192Z,99.99
2018-09-30T06:24:54.475Z,99.99
2018-09-30T06:25:54.496Z,99.99
2018-09-30T06:26:54.517Z,99.99
2018-09-30T06:27:54.542Z,99.99
2018-09-30T06:28:54.565Z,99.99
2018-09-30T06:30:09.252Z,99.99
2018-09-30T06:30:54.620Z,99.99
2018-09-30T06:32:54.665Z,99.99
2018-09-30T06:33:54.435Z,99.99
2018-09-30T06:34:54.713Z,99.99
2018-09-30T06:35:54.737Z,99.99
2018-09-30T06:36:54.761Z,99.99
2018-09-30T06:37:54.529Z,99.99
2018-09-30T06:38:54.814Z,99.99
2018-09-30T06:39:54.838Z,99.99
2018-09-30T06:40:54.628Z,99.99
2018-09-30T06:41:54.885Z,99.99
2018-09-30T06:42:54.655Z,99.99
2018-09-30T06:43:54.680Z,98.88
2018-09-30T06:44:55.084Z,97.93
2018-09-30T06:46:09.650Z,96.6
2018-09-30T06:46:54.756Z,96.7
2018-09-30T06:47:55.039Z,95.56
2018-09-30T06:48:55.064Z,95.17
2018-09-30T06:49:55.090Z,95.41
2018-09-30T06:50:55.250Z,93.41
2018-09-30T06:51:55.138Z,92.36
2018-09-30T06:52:55.166Z,92.36
2018-09-30T06:53:55.193Z,90.6
2018-09-30T06:54:55.222Z,90.12
2018-09-30T06:56:55.018Z,86.79
2018-09-30T06:57:55.296Z,85.78
2018-09-30T06:58:55.323Z,85.69
2018-09-30T06:59:55.351Z,85.88
2018-09-30T07:00:55.378Z,84.55
2018-09-30T07:02:10.067Z,82.35
2018-09-30T07:02:55.435Z,80.87
2018-09-30T07:03:55.460Z,81.06
2018-09-30T07:04:56.011Z,79.63
2018-09-30T07:05:55.511Z,79.72
2018-09-30T07:06:55.537Z,78.39
2018-09-30T07:07:55.570Z,78.58
2018-09-30T07:08:55.593Z,77.57
2018-09-30T07:09:55.617Z,76.33
2018-09-30T07:10:55.889Z,76.42
2018-09-30T07:11:55.675Z,76.23
2018-09-30T07:12:55.700Z,75.47
2018-09-30T07:13:55.728Z,74.71
2018-09-30T07:14:55.754Z,74.9
2018-09-30T07:15:55.782Z,74.61
2018-09-30T07:16:55.892Z,73.98
2018-09-30T07:18:10.497Z,72.83
2018-09-30T07:18:55.861Z,72.55
2018-09-30T07:19:55.894Z,72.07
2018-09-30T07:20:55.920Z,71.59
2018-09-30T07:21:55.944Z,71.88
2018-09-30T07:22:55.971Z,71.31
2018-09-30T07:23:55.996Z,71.02
2018-09-30T07:24:56.128Z,71.21
2018-09-30T07:25:56.056Z,70.1
2018-09-30T07:26:56.080Z,69.24
2018-09-30T07:27:56.111Z,69.62
2018-09-30T07:29:56.163Z,68.67
2018-09-30T07:30:56.187Z,68.76
2018-09-30T07:31:56.210Z,68.41
2018-09-30T07:33:10.905Z,68.61
2018-09-30T07:33:56.428Z,67.55
2018-09-30T07:34:56.292Z,67.75
2018-09-30T07:35:56.318Z,67.27
2018-09-30T07:36:56.348Z,66.7
2018-09-30T07:37:56.117Z,67.18
2018-09-30T07:38:56.401Z,66.31
2018-09-30T07:39:56.433Z,66.25
2018-09-30T07:40:56.452Z,66.25
2018-09-30T07:41:56.485Z,66.63
2018-09-30T07:42:56.509Z,64.91
2018-09-30T07:43:56.535Z,64.91
2018-09-30T07:44:56.562Z,65.01
2018-09-30T07:45:56.589Z,64.53
2018-09-30T07:46:56.764Z,65.58
2018-09-30T07:47:56.691Z,65.2
2018-09-30T07:48:56.666Z,64.91
2018-09-30T07:49:56.693Z,64.91
2018-09-30T07:50:56.461Z,64.15
2018-09-30T07:51:56.747Z,64.05
2018-09-30T07:52:56.772Z,64.34
2018-09-30T07:53:56.797Z,64.15
2018-09-30T07:54:56.824Z,64.43
2018-09-30T07:55:56.851Z,63.51
2018-09-30T07:56:56.876Z,63.67
2018-09-30T07:58:56.928Z,63.13
2018-09-30T07:59:56.951Z,62.08
2018-09-30T08:00:56.981Z,61.51
2018-09-30T08:01:57.009Z,61.15
2018-09-30T08:02:56.775Z,61.25
2018-09-30T08:03:57.058Z,61.6
2018-09-30T08:05:11.747Z,61.34
2018-09-30T08:05:57.112Z,60.86
2018-09-30T08:06:56.879Z,60.19
2018-09-30T08:07:57.160Z,60
2018-09-30T08:08:57.191Z,60.48
2018-09-30T08:09:57.215Z,60.38
2018-09-30T08:10:57.239Z,60.86
2018-09-30T08:11:57.266Z,60.19
2018-09-30T08:12:57.290Z,60
2018-09-30T08:13:57.316Z,59.62
2018-09-30T08:15:57.374Z,59.81
2018-09-30T08:16:57.535Z,59.62
2018-09-30T08:17:57.424Z,59.43
2018-09-30T08:18:57.445Z,59.43
2018-09-30T08:19:57.214Z,59.33
2018-09-30T08:21:12.160Z,58.98
2018-09-30T08:21:57.523Z,59.27
2018-09-30T08:22:57.798Z,58.79
2018-09-30T08:23:57.661Z,58.98
2018-09-30T08:24:57.601Z,58.22
2018-09-30T08:25:57.623Z,58.4
2018-09-30T08:26:57.655Z,57.92
2018-09-30T08:27:57.679Z,57.54
2018-09-30T08:28:57.703Z,57.54
2018-09-30T08:29:57.726Z,57.76
2018-09-30T08:30:57.759Z,57.38
2018-09-30T08:31:57.521Z,57.28
2018-09-30T08:32:57.806Z,56.52
2018-09-30T08:33:57.838Z,57.19
2018-09-30T08:34:57.858Z,57.57
2018-09-30T08:35:57.883Z,57.09
2018-09-30T08:37:12.567Z,56.04
2018-09-30T08:37:57.673Z,56.71
2018-09-30T08:38:57.698Z,57.38
2018-09-30T08:39:58.247Z,57.28
2018-09-30T08:40:57.749Z,56.42
2018-09-30T08:41:57.776Z,56.71
2018-09-30T08:42:58.056Z,57.19
2018-09-30T08:43:57.954Z,57.19
2018-09-30T08:44:57.853Z,57.35
2018-09-30T08:45:58.292Z,57.26
2018-09-30T08:46:58.161Z,57.26
2018-09-30T08:47:58.191Z,56.9
2018-09-30T08:48:58.215Z,56.71
2018-09-30T08:49:58.234Z,57.19
2018-09-30T08:50:58.258Z,57.28
2018-09-30T08:51:58.293Z,57.28
2018-09-30T08:53:12.972Z,56.23
2018-09-30T08:53:58.133Z,56.13
2018-09-30T08:54:58.103Z,56.32
2018-09-30T08:55:58.189Z,55.56
2018-09-30T08:56:58.415Z,55.65
2018-09-30T08:57:58.437Z,55.68
2018-09-30T08:58:58.460Z,55.78
2018-09-30T08:59:58.490Z,55.11
2018-09-30T09:00:58.515Z,56.07
2018-09-30T09:02:58.607Z,55.04
2018-09-30T09:03:58.587Z,54.72
2018-09-30T09:04:58.614Z,53.89
2018-09-30T09:05:58.644Z,54.27
2018-09-30T09:06:58.664Z,53.89
2018-09-30T09:08:13.352Z,54.01
2018-09-30T09:08:58.719Z,53.89
2018-09-30T09:09:58.908Z,53.53
2018-09-30T09:10:58.764Z,53.82
2018-09-30T09:11:58.788Z,54.01
2018-09-30T09:12:58.815Z,53.44
2018-09-30T09:13:58.842Z,53.53
2018-09-30T09:14:58.866Z,53.05
2018-09-30T09:15:58.892Z,53.24
2018-09-30T09:16:58.917Z,52.76
2018-09-30T09:17:58.945Z,52.67
2018-09-30T09:18:58.713Z,52.67
2018-09-30T09:19:58.993Z,52.48
2018-09-30T09:20:59.018Z,52.67
2018-09-30T09:21:59.045Z,51.93
2018-09-30T09:22:59.071Z,51.54
2018-09-30T09:23:59.097Z,52.4
2018-09-30T09:24:59.127Z,52.31
2018-09-30T09:25:59.145Z,51.35
2018-09-30T09:26:58.914Z,51.73
2018-09-30T09:27:59.259Z,51.47
2018-09-30T09:28:59.276Z,51.47
2018-09-30T09:29:59.248Z,50.9
2018-09-30T09:30:59.272Z,50.05
2018-09-30T09:31:59.040Z,49.67
2018-09-30T09:32:59.462Z,49.84
2018-09-30T09:33:59.351Z,50.32
2018-09-30T09:35:59.401Z,50.32
2018-09-30T09:36:59.439Z,50.42
2018-09-30T09:37:59.198Z,51.28
2018-09-30T09:38:59.478Z,51.18
2018-09-30T09:40:14.164Z,50.51
2018-09-30T09:40:59.528Z,50.61
2018-09-30T09:41:59.554Z,50.61
2018-09-30T09:42:59.320Z,50.63
2018-09-30T09:43:59.603Z,50.13
2018-09-30T09:45:59.653Z,49.87
2018-09-30T09:48:59.474Z,49.48
2018-09-30T09:49:59.754Z,48.61
2018-09-30T09:50:59.783Z,48.9
2018-09-30T09:51:59.808Z,48.61
2018-09-30T09:52:59.838Z,49
2018-09-30T09:53:59.859Z,49.65
2018-09-30T09:54:59.888Z,49.74
2018-09-30T09:56:14.571Z,49.65
2018-09-30T09:56:59.937Z,50.03
2018-09-30T09:57:59.978Z,49.84
2018-09-30T09:59:00.189Z,49.93
2018-09-30T10:00:00.010Z,49.74
2018-09-30T10:01:00.037Z,50.03
2018-09-30T10:02:00.062Z,50.23
2018-09-30T10:03:00.088Z,51.25
2018-09-30T10:03:59.855Z,50.68
2018-09-30T10:06:00.163Z,51.25
2018-09-30T10:07:00.198Z,50.39
2018-09-30T10:08:00.215Z,51.35
2018-09-30T10:09:00.239Z,51.83
2018-09-30T10:10:00.282Z,51.35
2018-09-30T10:11:00.288Z,51.54
2018-09-30T10:12:14.975Z,51.25
2018-09-30T10:13:00.515Z,50.49
2018-09-30T10:14:00.367Z,51.54
2018-09-30T10:15:00.132Z,51.35
2018-09-30T10:16:00.417Z,51.83
2018-09-30T10:17:00.182Z,51.73
2018-09-30T10:18:00.464Z,51.25
2018-09-30T10:19:00.494Z,51.64
2018-09-30T10:20:00.514Z,51.25
2018-09-30T10:21:00.538Z,50.68
2018-09-30T10:22:00.570Z,50.78
2018-09-30T10:24:00.611Z,51.23
2018-09-30T10:25:00.637Z,50.65
2018-09-30T10:26:00.665Z,51.14
2018-09-30T10:27:00.685Z,51.23
2018-09-30T10:28:15.372Z,50.75
2018-09-30T10:29:00.742Z,51.32
2018-09-30T10:30:00.760Z,50.56
2018-09-30T10:31:00.789Z,51.42
2018-09-30T10:32:00.820Z,51.14
2018-09-30T10:33:00.575Z,50.56
2018-09-30T10:34:00.599Z,50.46
2018-09-30T10:35:00.881Z,50.68
2018-09-30T10:36:00.649Z,50.2
2018-09-30T10:38:00.694Z,49.91
2018-09-30T10:39:00.849Z,49.82
2018-09-30T10:40:01.002Z,49.82
2018-09-30T10:41:01.030Z,50.01
2018-09-30T10:42:00.793Z,49.62
2018-09-30T10:43:15.736Z,49.82
2018-09-30T10:44:01.099Z,49.72
2018-09-30T10:45:01.123Z,49.62
2018-09-30T10:46:01.147Z,49.62
2018-09-30T10:47:01.189Z,49.62
2018-09-30T10:48:01.195Z,49.91
2018-09-30T10:49:01.219Z,49.52
2018-09-30T10:50:01.248Z,49.82
2018-09-30T10:51:01.009Z,49.43
2018-09-30T10:52:01.288Z,49.62
2018-09-30T10:53:01.317Z,48.02
2018-09-30T10:54:01.339Z,48.57
2018-09-30T10:55:01.365Z,49.82
2018-09-30T10:56:01.391Z,48.66
2018-09-30T10:57:01.607Z,48.85
2018-09-30T10:58:01.437Z,48.66
2018-09-30T10:59:01.459Z,49.15
2018-09-30T11:00:01.485Z,49.24
2018-09-30T11:01:01.509Z,49.33
2018-09-30T11:02:01.531Z,48.76
2018-09-30T11:03:01.561Z,48.57
2018-09-30T11:04:01.320Z,48.47
2018-09-30T11:05:01.341Z,48.66
2018-09-30T11:06:01.623Z,48.57
2018-09-30T11:07:01.643Z,47.89
2018-09-30T11:09:01.694Z,48.57
2018-09-30T11:10:01.878Z,48.76
2018-09-30T11:11:01.740Z,48.66
2018-09-30T11:12:01.773Z,48.47
2018-09-30T11:13:01.786Z,47.41
2018-09-30T11:14:01.553Z,47.82
2018-09-30T11:15:16.496Z,47.51
2018-09-30T11:16:01.619Z,47.82
2018-09-30T11:17:01.907Z,47.53
2018-09-30T11:18:01.904Z,48.11
2018-09-30T11:19:01.932Z,47.34
2018-09-30T11:20:01.956Z,48.21
2018-09-30T11:21:01.976Z,47.92
2018-09-30T11:22:02.005Z,47.89
2018-09-30T11:24:02.080Z,47.71
2018-09-30T11:25:02.073Z,46.84
2018-09-30T11:26:02.093Z,46.74
2018-09-30T11:27:02.140Z,47.44
2018-09-30T11:28:02.140Z,47.13
2018-09-30T11:29:02.167Z,48.09
2018-09-30T11:30:02.186Z,47.13
2018-09-30T11:31:16.872Z,47.13
2018-09-30T11:32:02.438Z,46.09
2018-09-30T11:34:02.294Z,46.09
2018-09-30T11:35:02.307Z,46.48
2018-09-30T11:36:02.326Z,46.19
2018-09-30T11:37:02.349Z,46.58
2018-09-30T11:39:02.399Z,45.98
2018-09-30T11:40:02.164Z,46.55
2018-09-30T11:41:02.445Z,46.07
2018-09-30T11:42:02.470Z,45.98
2018-09-30T11:43:02.493Z,45.98
2018-09-30T11:44:02.517Z,46.55
2018-09-30T11:45:02.640Z,46.65
2018-09-30T11:46:02.564Z,46.48
2018-09-30T11:47:17.247Z,46.74
2018-09-30T11:48:02.613Z,47.05
2018-09-30T11:49:02.636Z,46.67
2018-09-30T11:50:02.711Z,46.48
2018-09-30T11:51:02.678Z,46.67
2018-09-30T11:52:02.704Z,47.05
2018-09-30T11:53:02.469Z,45.71
2018-09-30T11:54:02.493Z,46.09
2018-09-30T11:55:02.775Z,46.38
2018-09-30T11:56:02.805Z,45.9
2018-09-30T11:57:02.821Z,45.9
2018-09-30T11:58:02.845Z,45.42
2018-09-30T11:59:02.608Z,45.71
2018-09-30T12:00:02.891Z,45.81
2018-09-30T12:01:02.935Z,45.42
2018-09-30T12:02:02.779Z,45.81
2018-09-30T12:03:17.624Z,46
2018-09-30T12:04:02.983Z,45.71
2018-09-30T12:05:03.008Z,45.81
2018-09-30T12:06:03.033Z,44.84
2018-09-30T12:07:03.057Z,45.42
2018-09-30T12:09:03.100Z,45.81
2018-09-30T12:10:02.866Z,45.81
2018-09-30T12:11:03.145Z,45.42
2018-09-30T12:14:03.223Z,44.17
2018-09-30T12:15:02.985Z,44.75
2018-09-30T12:16:03.265Z,44.46
2018-09-30T12:17:03.297Z,45.04
2018-09-30T12:18:17.973Z,45.23
2018-09-30T12:19:03.336Z,45.32
2018-09-30T12:20:03.104Z,45.23
2018-09-30T12:21:03.380Z,45.61
2018-09-30T12:22:03.407Z,46
2018-09-30T12:23:03.435Z,45.9
2018-09-30T12:24:03.456Z,45.32
2018-09-30T12:25:03.475Z,46.28
2018-09-30T12:26:03.501Z,46.09
2018-09-30T12:27:03.525Z,45.71
2018-09-30T12:28:03.547Z,46.77
2018-09-30T12:29:03.571Z,46
2018-09-30T12:30:03.605Z,46.19
2018-09-30T12:31:03.617Z,46.28
2018-09-30T12:32:03.637Z,46.19
2018-09-30T12:33:03.404Z,45.81
2018-09-30T12:34:03.694Z,45.9
2018-09-30T12:35:03.711Z,45.42
2018-09-30T12:36:03.736Z,45.81
2018-09-30T12:37:03.756Z,45.42
2018-09-30T12:38:03.778Z,45.73
2018-09-30T12:39:03.802Z,45.73
2018-09-30T12:40:03.828Z,45.92
2018-09-30T12:41:03.590Z,45.81
2018-09-30T12:45:03.688Z,46.38
2018-09-30T12:46:03.964Z,46.48
2018-09-30T12:47:03.990Z,46.09
2018-09-30T12:48:03.754Z,46.21
2018-09-30T12:49:04.036Z,46.98
2018-09-30T12:50:18.719Z,45.45
2018-09-30T12:51:04.090Z,44.1
2018-09-30T12:52:04.111Z,44.84
2018-09-30T12:53:03.871Z,44.84
2018-09-30T12:54:03.894Z,44.94
2018-09-30T12:55:03.919Z,45.54
2018-09-30T12:56:04.199Z,45.25
2018-09-30T12:57:04.220Z,44.29
2018-09-30T12:58:04.366Z,44.87
2018-09-30T12:59:04.270Z,44.58
2018-09-30T13:00:04.306Z,44.84
2018-09-30T13:01:04.316Z,44.58
2018-09-30T13:02:04.340Z,44.08
2018-09-30T13:03:04.366Z,45.23
2018-09-30T13:04:04.418Z,45.06
2018-09-30T13:05:04.152Z,44.27
2018-09-30T13:06:19.093Z,44.75
2018-09-30T13:07:04.460Z,44.46
2018-09-30T13:08:04.222Z,45.04
2018-09-30T13:09:04.244Z,44.58
2018-09-30T13:10:04.529Z,45.45
2018-09-30T13:11:04.290Z,44.96
2018-09-30T13:12:04.394Z,44.96
2018-09-30T13:13:04.599Z,45.15
2018-09-30T13:14:04.362Z,43.81
2018-09-30T13:15:04.385Z,44.1
2018-09-30T13:17:04.694Z,43.88
2018-09-30T13:18:04.711Z,44.46
2018-09-30T13:19:04.739Z,43.62
2018-09-30T13:20:04.761Z,43.91
2018-09-30T13:21:04.993Z,44.27
2018-09-30T13:22:19.467Z,43.52
2018-09-30T13:23:04.832Z,43.6
2018-09-30T13:24:04.595Z,43.21
2018-09-30T13:25:04.883Z,43.79
2018-09-30T13:26:04.641Z,43.14
2018-09-30T13:27:04.920Z,43.6
2018-09-30T13:28:04.967Z,44.08
2018-09-30T13:29:04.713Z,43.88
2018-09-30T13:30:04.992Z,43.79
2018-09-30T13:32:05.041Z,43.5
2018-09-30T13:33:05.061Z,44.08
2018-09-30T13:34:05.085Z,44.56
2018-09-30T13:35:04.856Z,44.65
2018-09-30T13:36:05.133Z,44.37
2018-09-30T13:37:05.162Z,44.37
2018-09-30T13:38:19.841Z,43.6
2018-09-30T13:39:05.202Z,43.6
2018-09-30T13:40:05.414Z,43.31
2018-09-30T13:41:05.694Z,43.79
2018-09-30T13:42:05.015Z,43.6
2018-09-30T13:43:05.038Z,43.21
2018-09-30T13:44:05.318Z,43.4
2018-09-30T13:45:05.346Z,43.21
2018-09-30T13:46:05.478Z,43.4
2018-09-30T13:47:05.390Z,44.17